sensor_id;sensor_type;location;lat;lon;timestamp;P1;durP1;ratioP1;P2;durP2;ratioP2
66380;SDS011;53177;52.648;1.214;2023-06-22T00:02:12;8.47;;;4.37;;
66380;SDS011;53177;52.648;1.214;2023-06-22T00:04:37;8.60;;;4.47;;
66380;SDS011;53177;52.648;1.214;2023-06-22T00:07:03;8.90;;;4.67;;
66380;SDS011;53177;52.648;1.214;2023-06-22T00:09:28;10.57;;;4.68;;
66380;SDS011;53177;52.648;1.214;2023-06-22T00:11:54;11.07;;;5.40;;
66380;SDS011;53177;52.648;1.214;2023-06-22T00:14:19;12.20;;;5.20;;
66380;SDS011;53177;52.648;1.214;2023-06-22T00:16:44;8.60;;;4.67;;
66380;SDS011;53177;52.648;1.214;2023-06-22T00:19:13;8.55;;;4.68;;
66380;SDS011;53177;52.648;1.214;2023-06-22T00:21:44;10.27;;;4.50;;
66380;SDS011;53177;52.648;1.214;2023-06-22T00:24:11;9.20;;;4.30;;
66380;SDS011;53177;52.648;1.214;2023-06-22T00:26:37;10.10;;;4.57;;
66380;SDS011;53177;52.648;1.214;2023-06-22T00:29:02;8.17;;;4.30;;
66380;SDS011;53177;52.648;1.214;2023-06-22T00:31:28;8.07;;;4.23;;
66380;SDS011;53177;52.648;1.214;2023-06-22T00:33:53;8.68;;;4.53;;
66380;SDS011;53177;52.648;1.214;2023-06-22T00:36:19;8.70;;;4.67;;
66380;SDS011;53177;52.648;1.214;2023-06-22T00:38:44;10.03;;;4.53;;
66380;SDS011;53177;52.648;1.214;2023-06-22T00:41:09;10.93;;;5.03;;
66380;SDS011;53177;52.648;1.214;2023-06-22T00:43:35;9.93;;;4.97;;
66380;SDS011;53177;52.648;1.214;2023-06-22T00:46:00;9.65;;;4.30;;
66380;SDS011;53177;52.648;1.214;2023-06-22T00:48:26;8.30;;;4.63;;
66380;SDS011;53177;52.648;1.214;2023-06-22T00:50:51;9.10;;;4.67;;
66380;SDS011;53177;52.648;1.214;2023-06-22T00:53:18;9.02;;;4.60;;
66380;SDS011;53177;52.648;1.214;2023-06-22T00:55:44;10.40;;;5.20;;
66380;SDS011;53177;52.648;1.214;2023-06-22T00:58:16;9.63;;;5.00;;
66380;SDS011;53177;52.648;1.214;2023-06-22T01:00:42;9.40;;;5.00;;
66380;SDS011;53177;52.648;1.214;2023-06-22T01:03:07;10.75;;;4.85;;
66380;SDS011;53177;52.648;1.214;2023-06-22T01:05:34;10.38;;;4.60;;
66380;SDS011;53177;52.648;1.214;2023-06-22T01:08:13;10.90;;;5.30;;
66380;SDS011;53177;52.648;1.214;2023-06-22T01:10:51;9.55;;;5.20;;
66380;SDS011;53177;52.648;1.214;2023-06-22T01:16:02;11.30;;;5.30;;
66380;SDS011;53177;52.648;1.214;2023-06-22T01:18:33;9.52;;;5.43;;
66380;SDS011;53177;52.648;1.214;2023-06-22T01:21:01;12.43;;;6.37;;
66380;SDS011;53177;52.648;1.214;2023-06-22T01:23:36;12.13;;;6.55;;
66380;SDS011;53177;52.648;1.214;2023-06-22T01:29:03;11.15;;;5.72;;
66380;SDS011;53177;52.648;1.214;2023-06-22T01:31:30;12.10;;;6.40;;
66380;SDS011;53177;52.648;1.214;2023-06-22T01:33:59;11.40;;;6.40;;
66380;SDS011;53177;52.648;1.214;2023-06-22T01:36:26;10.90;;;6.15;;
66380;SDS011;53177;52.648;1.214;2023-06-22T01:38:52;11.07;;;6.15;;
66380;SDS011;53177;52.648;1.214;2023-06-22T01:41:21;11.80;;;5.97;;
66380;SDS011;53177;52.648;1.214;2023-06-22T01:43:50;11.10;;;5.40;;
66380;SDS011;53177;52.648;1.214;2023-06-22T01:46:16;8.63;;;4.85;;
66380;SDS011;53177;52.648;1.214;2023-06-22T01:48:44;9.63;;;4.97;;
66380;SDS011;53177;52.648;1.214;2023-06-22T01:51:11;9.85;;;5.00;;
66380;SDS011;53177;52.648;1.214;2023-06-22T01:53:37;10.67;;;5.00;;
66380;SDS011;53177;52.648;1.214;2023-06-22T01:56:02;9.85;;;5.00;;
66380;SDS011;53177;52.648;1.214;2023-06-22T01:58:29;9.55;;;5.25;;
66380;SDS011;53177;52.648;1.214;2023-06-22T02:01:00;11.83;;;5.83;;
66380;SDS011;53177;52.648;1.214;2023-06-22T02:03:38;11.25;;;5.85;;
66380;SDS011;53177;52.648;1.214;2023-06-22T02:06:16;9.30;;;5.25;;
66380;SDS011;53177;52.648;1.214;2023-06-22T02:08:47;9.77;;;5.03;;
66380;SDS011;53177;52.648;1.214;2023-06-22T02:11:16;10.77;;;5.70;;
66380;SDS011;53177;52.648;1.214;2023-06-22T02:13:45;9.67;;;4.90;;
66380;SDS011;53177;52.648;1.214;2023-06-22T02:16:11;8.85;;;4.95;;
66380;SDS011;53177;52.648;1.214;2023-06-22T02:18:38;9.18;;;5.38;;
66380;SDS011;53177;52.648;1.214;2023-06-22T02:21:05;10.05;;;5.32;;
66380;SDS011;53177;52.648;1.214;2023-06-22T02:23:30;9.50;;;4.80;;
66380;SDS011;53177;52.648;1.214;2023-06-22T02:25:58;10.60;;;5.40;;
66380;SDS011;53177;52.648;1.214;2023-06-22T02:28:23;9.33;;;5.20;;
66380;SDS011;53177;52.648;1.214;2023-06-22T02:30:48;10.48;;;5.07;;
66380;SDS011;53177;52.648;1.214;2023-06-22T02:33:14;9.50;;;5.00;;
66380;SDS011;53177;52.648;1.214;2023-06-22T02:35:39;12.50;;;5.00;;
66380;SDS011;53177;52.648;1.214;2023-06-22T02:38:05;9.07;;;4.70;;
66380;SDS011;53177;52.648;1.214;2023-06-22T02:40:30;9.70;;;4.87;;
66380;SDS011;53177;52.648;1.214;2023-06-22T02:42:56;8.80;;;4.90;;
66380;SDS011;53177;52.648;1.214;2023-06-22T02:45:27;9.02;;;5.20;;
66380;SDS011;53177;52.648;1.214;2023-06-22T02:47:52;9.77;;;4.87;;
66380;SDS011;53177;52.648;1.214;2023-06-22T02:50:18;10.23;;;5.20;;
66380;SDS011;53177;52.648;1.214;2023-06-22T02:52:49;11.27;;;5.17;;
66380;SDS011;53177;52.648;1.214;2023-06-22T02:55:17;12.23;;;6.17;;
66380;SDS011;53177;52.648;1.214;2023-06-22T02:57:51;10.70;;;5.57;;
66380;SDS011;53177;52.648;1.214;2023-06-22T03:00:22;10.23;;;5.82;;
66380;SDS011;53177;52.648;1.214;2023-06-22T03:03:00;14.70;;;6.65;;
66380;SDS011;53177;52.648;1.214;2023-06-22T03:05:34;13.18;;;6.50;;
66380;SDS011;53177;52.648;1.214;2023-06-22T03:08:03;13.20;;;6.83;;
66380;SDS011;53177;52.648;1.214;2023-06-22T03:13:19;13.85;;;7.47;;
66380;SDS011;53177;52.648;1.214;2023-06-22T03:15:47;15.07;;;8.50;;
66380;SDS011;53177;52.648;1.214;2023-06-22T03:18:16;16.48;;;7.82;;
66380;SDS011;53177;52.648;1.214;2023-06-22T03:20:42;13.17;;;7.60;;
66380;SDS011;53177;52.648;1.214;2023-06-22T03:23:08;15.02;;;7.63;;
66380;SDS011;53177;52.648;1.214;2023-06-22T03:25:34;12.23;;;7.23;;
66380;SDS011;53177;52.648;1.214;2023-06-22T03:28:00;12.10;;;7.10;;
66380;SDS011;53177;52.648;1.214;2023-06-22T03:30:25;10.83;;;6.13;;
66380;SDS011;53177;52.648;1.214;2023-06-22T03:32:51;13.37;;;6.43;;
66380;SDS011;53177;52.648;1.214;2023-06-22T03:35:16;11.60;;;6.40;;
66380;SDS011;53177;52.648;1.214;2023-06-22T03:37:42;10.20;;;6.13;;
66380;SDS011;53177;52.648;1.214;2023-06-22T03:40:07;11.60;;;6.63;;
66380;SDS011;53177;52.648;1.214;2023-06-22T03:42:33;12.85;;;6.43;;
66380;SDS011;53177;52.648;1.214;2023-06-22T03:45:01;12.82;;;6.80;;
66380;SDS011;53177;52.648;1.214;2023-06-22T03:47:26;10.68;;;6.10;;
66380;SDS011;53177;52.648;1.214;2023-06-22T03:49:52;11.43;;;6.27;;
66380;SDS011;53177;52.648;1.214;2023-06-22T03:52:20;11.30;;;5.77;;
66380;SDS011;53177;52.648;1.214;2023-06-22T03:54:46;10.15;;;5.75;;
66380;SDS011;53177;52.648;1.214;2023-06-22T03:57:11;11.57;;;5.87;;
66380;SDS011;53177;52.648;1.214;2023-06-22T03:59:37;10.63;;;5.82;;
66380;SDS011;53177;52.648;1.214;2023-06-22T04:02:02;9.00;;;5.27;;
66380;SDS011;53177;52.648;1.214;2023-06-22T04:04:27;9.60;;;5.37;;
66380;SDS011;53177;52.648;1.214;2023-06-22T04:06:53;9.40;;;5.40;;
66380;SDS011;53177;52.648;1.214;2023-06-22T04:09:18;9.40;;;5.23;;
66380;SDS011;53177;52.648;1.214;2023-06-22T04:11:44;8.87;;;5.10;;
66380;SDS011;53177;52.648;1.214;2023-06-22T04:14:09;11.47;;;5.57;;
66380;SDS011;53177;52.648;1.214;2023-06-22T04:16:34;9.00;;;5.30;;
66380;SDS011;53177;52.648;1.214;2023-06-22T04:19:00;9.07;;;5.60;;
66380;SDS011;53177;52.648;1.214;2023-06-22T04:21:25;11.67;;;6.63;;
66380;SDS011;53177;52.648;1.214;2023-06-22T04:23:50;14.23;;;6.37;;
66380;SDS011;53177;52.648;1.214;2023-06-22T04:26:16;11.00;;;5.90;;
66380;SDS011;53177;52.648;1.214;2023-06-22T04:28:41;14.03;;;6.10;;
66380;SDS011;53177;52.648;1.214;2023-06-22T04:31:07;9.77;;;5.73;;
66380;SDS011;53177;52.648;1.214;2023-06-22T04:33:32;11.73;;;5.87;;
66380;SDS011;53177;52.648;1.214;2023-06-22T04:35:58;11.43;;;6.23;;
66380;SDS011;53177;52.648;1.214;2023-06-22T04:38:26;14.90;;;7.03;;
66380;SDS011;53177;52.648;1.214;2023-06-22T04:40:51;13.57;;;7.75;;
66380;SDS011;53177;52.648;1.214;2023-06-22T04:43:18;13.13;;;7.30;;
66380;SDS011;53177;52.648;1.214;2023-06-22T04:45:44;11.32;;;5.85;;
66380;SDS011;53177;52.648;1.214;2023-06-22T04:48:09;11.77;;;6.53;;
66380;SDS011;53177;52.648;1.214;2023-06-22T04:50:35;11.93;;;6.73;;
66380;SDS011;53177;52.648;1.214;2023-06-22T04:53:03;12.13;;;6.13;;
66380;SDS011;53177;52.648;1.214;2023-06-22T04:55:30;11.43;;;6.70;;
66380;SDS011;53177;52.648;1.214;2023-06-22T04:57:56;12.35;;;7.00;;
66380;SDS011;53177;52.648;1.214;2023-06-22T05:00:29;10.57;;;5.80;;
66380;SDS011;53177;52.648;1.214;2023-06-22T05:02:56;11.93;;;6.83;;
66380;SDS011;53177;52.648;1.214;2023-06-22T05:05:22;10.80;;;6.18;;
66380;SDS011;53177;52.648;1.214;2023-06-22T05:07:49;12.82;;;5.93;;
66380;SDS011;53177;52.648;1.214;2023-06-22T05:10:18;12.43;;;6.85;;
66380;SDS011;53177;52.648;1.214;2023-06-22T05:12:44;11.65;;;6.93;;
66380;SDS011;53177;52.648;1.214;2023-06-22T05:15:10;11.83;;;6.67;;
66380;SDS011;53177;52.648;1.214;2023-06-22T05:17:36;11.98;;;6.75;;
66380;SDS011;53177;52.648;1.214;2023-06-22T05:20:06;12.47;;;7.23;;
66380;SDS011;53177;52.648;1.214;2023-06-22T05:22:32;14.27;;;7.68;;
66380;SDS011;53177;52.648;1.214;2023-06-22T05:24:57;13.13;;;6.93;;
66380;SDS011;53177;52.648;1.214;2023-06-22T05:27:22;12.97;;;7.20;;
66380;SDS011;53177;52.648;1.214;2023-06-22T05:29:48;14.73;;;7.55;;
66380;SDS011;53177;52.648;1.214;2023-06-22T05:32:13;12.40;;;7.10;;
66380;SDS011;53177;52.648;1.214;2023-06-22T05:34:39;11.43;;;6.47;;
66380;SDS011;53177;52.648;1.214;2023-06-22T05:37:05;16.20;;;7.93;;
66380;SDS011;53177;52.648;1.214;2023-06-22T05:39:31;13.30;;;7.10;;
66380;SDS011;53177;52.648;1.214;2023-06-22T05:41:56;12.90;;;7.40;;
66380;SDS011;53177;52.648;1.214;2023-06-22T05:44:22;13.27;;;7.03;;
66380;SDS011;53177;52.648;1.214;2023-06-22T05:46:47;15.73;;;8.70;;
66380;SDS011;53177;52.648;1.214;2023-06-22T05:49:13;13.38;;;7.15;;
66380;SDS011;53177;52.648;1.214;2023-06-22T05:51:39;12.93;;;7.20;;
66380;SDS011;53177;52.648;1.214;2023-06-22T05:54:05;13.45;;;7.13;;
66380;SDS011;53177;52.648;1.214;2023-06-22T05:56:31;15.40;;;7.27;;
66380;SDS011;53177;52.648;1.214;2023-06-22T05:58:56;17.05;;;8.45;;
66380;SDS011;53177;52.648;1.214;2023-06-22T06:01:21;17.33;;;8.50;;
66380;SDS011;53177;52.648;1.214;2023-06-22T06:03:47;18.03;;;8.80;;
66380;SDS011;53177;52.648;1.214;2023-06-22T06:06:15;15.45;;;7.00;;
66380;SDS011;53177;52.648;1.214;2023-06-22T06:08:40;16.33;;;7.20;;
66380;SDS011;53177;52.648;1.214;2023-06-22T06:11:06;18.58;;;8.77;;
66380;SDS011;53177;52.648;1.214;2023-06-22T06:13:32;17.80;;;8.73;;
66380;SDS011;53177;52.648;1.214;2023-06-22T06:15:57;15.68;;;8.50;;
66380;SDS011;53177;52.648;1.214;2023-06-22T06:18:24;16.50;;;7.90;;
66380;SDS011;53177;52.648;1.214;2023-06-22T06:20:49;16.07;;;8.07;;
66380;SDS011;53177;52.648;1.214;2023-06-22T06:23:14;14.45;;;7.40;;
66380;SDS011;53177;52.648;1.214;2023-06-22T06:25:40;20.20;;;8.47;;
66380;SDS011;53177;52.648;1.214;2023-06-22T06:28:05;14.20;;;7.20;;
66380;SDS011;53177;52.648;1.214;2023-06-22T06:30:31;17.67;;;8.60;;
66380;SDS011;53177;52.648;1.214;2023-06-22T06:32:56;14.60;;;7.13;;
66380;SDS011;53177;52.648;1.214;2023-06-22T06:35:22;13.63;;;6.17;;
66380;SDS011;53177;52.648;1.214;2023-06-22T06:37:48;14.68;;;7.45;;
66380;SDS011;53177;52.648;1.214;2023-06-22T06:40:15;13.75;;;7.13;;
66380;SDS011;53177;52.648;1.214;2023-06-22T06:42:48;13.77;;;7.37;;
66380;SDS011;53177;52.648;1.214;2023-06-22T06:45:18;21.42;;;8.27;;
66380;SDS011;53177;52.648;1.214;2023-06-22T06:47:45;15.98;;;6.75;;
66380;SDS011;53177;52.648;1.214;2023-06-22T06:50:11;14.88;;;7.20;;
66380;SDS011;53177;52.648;1.214;2023-06-22T06:52:37;14.45;;;6.97;;
66380;SDS011;53177;52.648;1.214;2023-06-22T06:55:03;15.50;;;7.10;;
66380;SDS011;53177;52.648;1.214;2023-06-22T06:57:35;15.95;;;7.18;;
66380;SDS011;53177;52.648;1.214;2023-06-22T07:00:02;13.82;;;6.93;;
66380;SDS011;53177;52.648;1.214;2023-06-22T07:02:35;13.25;;;6.82;;
66380;SDS011;53177;52.648;1.214;2023-06-22T07:05:01;13.35;;;6.90;;
66380;SDS011;53177;52.648;1.214;2023-06-22T07:07:29;12.63;;;6.47;;
66380;SDS011;53177;52.648;1.214;2023-06-22T07:09:54;12.43;;;6.75;;
66380;SDS011;53177;52.648;1.214;2023-06-22T07:12:20;13.77;;;6.73;;
66380;SDS011;53177;52.648;1.214;2023-06-22T07:14:46;13.38;;;6.55;;
66380;SDS011;53177;52.648;1.214;2023-06-22T07:17:11;11.77;;;6.40;;
66380;SDS011;53177;52.648;1.214;2023-06-22T07:19:36;15.97;;;7.00;;
66380;SDS011;53177;52.648;1.214;2023-06-22T07:22:02;18.03;;;6.40;;
66380;SDS011;53177;52.648;1.214;2023-06-22T07:24:27;11.67;;;6.17;;
66380;SDS011;53177;52.648;1.214;2023-06-22T07:26:53;9.47;;;5.30;;
66380;SDS011;53177;52.648;1.214;2023-06-22T07:29:18;12.80;;;5.70;;
66380;SDS011;53177;52.648;1.214;2023-06-22T07:31:49;11.35;;;5.20;;
66380;SDS011;53177;52.648;1.214;2023-06-22T07:34:16;12.23;;;5.50;;
66380;SDS011;53177;52.648;1.214;2023-06-22T07:36:43;10.38;;;5.20;;
66380;SDS011;53177;52.648;1.214;2023-06-22T07:39:08;13.75;;;6.15;;
66380;SDS011;53177;52.648;1.214;2023-06-22T07:41:34;13.90;;;5.90;;
66380;SDS011;53177;52.648;1.214;2023-06-22T07:43:59;10.60;;;5.17;;
66380;SDS011;53177;52.648;1.214;2023-06-22T07:46:25;10.80;;;5.10;;
66380;SDS011;53177;52.648;1.214;2023-06-22T07:48:50;10.80;;;5.30;;
66380;SDS011;53177;52.648;1.214;2023-06-22T07:51:16;10.55;;;5.13;;
66380;SDS011;53177;52.648;1.214;2023-06-22T07:53:42;9.50;;;5.07;;
66380;SDS011;53177;52.648;1.214;2023-06-22T07:56:11;11.40;;;5.75;;
66380;SDS011;53177;52.648;1.214;2023-06-22T07:58:36;11.47;;;5.00;;
66380;SDS011;53177;52.648;1.214;2023-06-22T08:01:02;9.70;;;5.13;;
66380;SDS011;53177;52.648;1.214;2023-06-22T08:03:28;9.43;;;4.67;;
66380;SDS011;53177;52.648;1.214;2023-06-22T08:05:53;9.98;;;5.07;;
66380;SDS011;53177;52.648;1.214;2023-06-22T08:08:19;10.57;;;4.63;;
66380;SDS011;53177;52.648;1.214;2023-06-22T08:10:44;10.87;;;4.67;;
66380;SDS011;53177;52.648;1.214;2023-06-22T08:13:09;12.10;;;4.97;;
66380;SDS011;53177;52.648;1.214;2023-06-22T08:15:35;10.80;;;4.77;;
66380;SDS011;53177;52.648;1.214;2023-06-22T08:18:00;10.10;;;4.80;;
66380;SDS011;53177;52.648;1.214;2023-06-22T08:20:26;10.52;;;4.72;;
66380;SDS011;53177;52.648;1.214;2023-06-22T08:22:52;9.37;;;5.13;;
66380;SDS011;53177;52.648;1.214;2023-06-22T08:25:19;10.50;;;4.38;;
66380;SDS011;53177;52.648;1.214;2023-06-22T08:27:46;8.18;;;4.57;;
66380;SDS011;53177;52.648;1.214;2023-06-22T08:30:12;8.87;;;4.27;;
66380;SDS011;53177;52.648;1.214;2023-06-22T08:32:38;10.85;;;4.82;;
66380;SDS011;53177;52.648;1.214;2023-06-22T08:35:04;9.17;;;4.07;;
66380;SDS011;53177;52.648;1.214;2023-06-22T08:37:31;9.43;;;4.38;;
66380;SDS011;53177;52.648;1.214;2023-06-22T08:40:00;9.57;;;4.65;;
66380;SDS011;53177;52.648;1.214;2023-06-22T08:42:27;9.65;;;4.40;;
66380;SDS011;53177;52.648;1.214;2023-06-22T08:44:52;8.13;;;4.13;;
66380;SDS011;53177;52.648;1.214;2023-06-22T08:47:18;7.28;;;4.00;;
66380;SDS011;53177;52.648;1.214;2023-06-22T08:49:45;8.23;;;3.50;;
66380;SDS011;53177;52.648;1.214;2023-06-22T08:52:10;7.60;;;3.70;;
66380;SDS011;53177;52.648;1.214;2023-06-22T08:54:35;6.77;;;3.57;;
66380;SDS011;53177;52.648;1.214;2023-06-22T08:57:01;9.07;;;4.03;;
66380;SDS011;53177;52.648;1.214;2023-06-22T08:59:27;8.68;;;3.97;;
66380;SDS011;53177;52.648;1.214;2023-06-22T09:01:53;8.10;;;4.23;;
66380;SDS011;53177;52.648;1.214;2023-06-22T09:04:18;9.07;;;4.03;;
66380;SDS011;53177;52.648;1.214;2023-06-22T09:06:43;8.07;;;4.20;;
66380;SDS011;53177;52.648;1.214;2023-06-22T09:09:12;9.10;;;4.40;;
66380;SDS011;53177;52.648;1.214;2023-06-22T09:11:38;7.63;;;3.80;;
66380;SDS011;53177;52.648;1.214;2023-06-22T09:14:03;7.13;;;3.50;;
66380;SDS011;53177;52.648;1.214;2023-06-22T09:16:29;8.05;;;3.88;;
66380;SDS011;53177;52.648;1.214;2023-06-22T09:18:55;7.97;;;4.00;;
66380;SDS011;53177;52.648;1.214;2023-06-22T09:21:20;7.97;;;3.92;;
66380;SDS011;53177;52.648;1.214;2023-06-22T09:23:46;8.30;;;3.97;;
66380;SDS011;53177;52.648;1.214;2023-06-22T09:26:15;7.15;;;3.60;;
66380;SDS011;53177;52.648;1.214;2023-06-22T09:28:40;7.57;;;3.83;;
66380;SDS011;53177;52.648;1.214;2023-06-22T09:31:06;8.20;;;4.20;;
66380;SDS011;53177;52.648;1.214;2023-06-22T09:33:31;9.17;;;3.87;;
66380;SDS011;53177;52.648;1.214;2023-06-22T09:35:57;8.67;;;4.00;;
66380;SDS011;53177;52.648;1.214;2023-06-22T09:38:22;7.17;;;3.60;;
66380;SDS011;53177;52.648;1.214;2023-06-22T09:40:49;7.25;;;3.50;;
66380;SDS011;53177;52.648;1.214;2023-06-22T09:43:14;9.23;;;4.40;;
66380;SDS011;53177;52.648;1.214;2023-06-22T09:45:39;9.80;;;4.77;;
66380;SDS011;53177;52.648;1.214;2023-06-22T09:48:05;7.83;;;4.00;;
66380;SDS011;53177;52.648;1.214;2023-06-22T09:50:30;8.40;;;3.77;;
66380;SDS011;53177;52.648;1.214;2023-06-22T09:52:56;8.00;;;3.83;;
66380;SDS011;53177;52.648;1.214;2023-06-22T09:55:21;7.70;;;3.70;;
66380;SDS011;53177;52.648;1.214;2023-06-22T09:57:47;7.90;;;3.70;;
66380;SDS011;53177;52.648;1.214;2023-06-22T10:00:13;6.83;;;3.20;;
66380;SDS011;53177;52.648;1.214;2023-06-22T10:02:43;7.40;;;3.63;;
66380;SDS011;53177;52.648;1.214;2023-06-22T10:05:08;7.05;;;3.45;;
66380;SDS011;53177;52.648;1.214;2023-06-22T10:07:34;7.63;;;3.33;;
66380;SDS011;53177;52.648;1.214;2023-06-22T10:09:59;8.30;;;3.70;;
66380;SDS011;53177;52.648;1.214;2023-06-22T10:12:27;7.27;;;3.60;;
66380;SDS011;53177;52.648;1.214;2023-06-22T10:14:52;6.90;;;3.40;;
66380;SDS011;53177;52.648;1.214;2023-06-22T10:17:18;5.97;;;3.33;;
66380;SDS011;53177;52.648;1.214;2023-06-22T10:19:43;8.03;;;3.80;;
66380;SDS011;53177;52.648;1.214;2023-06-22T10:22:08;6.93;;;3.70;;
66380;SDS011;53177;52.648;1.214;2023-06-22T10:24:34;7.53;;;3.80;;
66380;SDS011;53177;52.648;1.214;2023-06-22T10:26:59;7.77;;;3.70;;
66380;SDS011;53177;52.648;1.214;2023-06-22T10:29:24;7.87;;;3.60;;
66380;SDS011;53177;52.648;1.214;2023-06-22T10:31:50;7.97;;;3.87;;
66380;SDS011;53177;52.648;1.214;2023-06-22T10:34:15;6.73;;;3.63;;
66380;SDS011;53177;52.648;1.214;2023-06-22T10:36:40;9.00;;;3.77;;
66380;SDS011;53177;52.648;1.214;2023-06-22T10:39:06;7.83;;;3.77;;
66380;SDS011;53177;52.648;1.214;2023-06-22T10:41:31;8.33;;;3.93;;
66380;SDS011;53177;52.648;1.214;2023-06-22T10:43:57;8.13;;;3.47;;
66380;SDS011;53177;52.648;1.214;2023-06-22T10:46:26;7.70;;;3.70;;
66380;SDS011;53177;52.648;1.214;2023-06-22T10:48:52;7.97;;;3.70;;
66380;SDS011;53177;52.648;1.214;2023-06-22T10:51:20;7.65;;;4.10;;
66380;SDS011;53177;52.648;1.214;2023-06-22T10:53:45;7.33;;;3.30;;
66380;SDS011;53177;52.648;1.214;2023-06-22T10:56:10;6.20;;;3.13;;
66380;SDS011;53177;52.648;1.214;2023-06-22T10:58:36;6.00;;;3.10;;
66380;SDS011;53177;52.648;1.214;2023-06-22T11:01:01;7.13;;;3.33;;
66380;SDS011;53177;52.648;1.214;2023-06-22T11:03:28;7.68;;;3.65;;
66380;SDS011;53177;52.648;1.214;2023-06-22T11:05:53;6.90;;;3.17;;
66380;SDS011;53177;52.648;1.214;2023-06-22T11:08:19;7.77;;;3.63;;
66380;SDS011;53177;52.648;1.214;2023-06-22T11:10:44;7.20;;;3.57;;
66380;SDS011;53177;52.648;1.214;2023-06-22T11:13:09;6.40;;;3.50;;
66380;SDS011;53177;52.648;1.214;2023-06-22T11:15:35;8.03;;;3.47;;
66380;SDS011;53177;52.648;1.214;2023-06-22T11:18:01;7.82;;;3.70;;
66380;SDS011;53177;52.648;1.214;2023-06-22T11:20:26;7.90;;;3.50;;
66380;SDS011;53177;52.648;1.214;2023-06-22T11:22:52;7.90;;;3.70;;
66380;SDS011;53177;52.648;1.214;2023-06-22T11:25:17;7.83;;;3.47;;
66380;SDS011;53177;52.648;1.214;2023-06-22T11:27:43;8.63;;;3.40;;
66380;SDS011;53177;52.648;1.214;2023-06-22T11:30:08;6.33;;;3.53;;
66380;SDS011;53177;52.648;1.214;2023-06-22T11:32:34;6.78;;;3.22;;
66380;SDS011;53177;52.648;1.214;2023-06-22T11:35:00;5.80;;;3.20;;
66380;SDS011;53177;52.648;1.214;2023-06-22T11:37:25;6.77;;;3.47;;
66380;SDS011;53177;52.648;1.214;2023-06-22T11:39:51;7.18;;;3.50;;
66380;SDS011;53177;52.648;1.214;2023-06-22T11:42:16;6.27;;;3.03;;
66380;SDS011;53177;52.648;1.214;2023-06-22T11:44:42;6.20;;;3.10;;
66380;SDS011;53177;52.648;1.214;2023-06-22T11:47:08;7.50;;;2.90;;
66380;SDS011;53177;52.648;1.214;2023-06-22T11:49:34;7.37;;;3.00;;
66380;SDS011;53177;52.648;1.214;2023-06-22T11:51:59;6.13;;;3.10;;
66380;SDS011;53177;52.648;1.214;2023-06-22T11:54:25;6.93;;;3.15;;
66380;SDS011;53177;52.648;1.214;2023-06-22T11:56:50;6.63;;;2.73;;
66380;SDS011;53177;52.648;1.214;2023-06-22T11:59:15;8.03;;;4.00;;
66380;SDS011;53177;52.648;1.214;2023-06-22T12:01:41;7.60;;;3.90;;
66380;SDS011;53177;52.648;1.214;2023-06-22T12:04:06;8.90;;;4.20;;
66380;SDS011;53177;52.648;1.214;2023-06-22T12:06:32;7.67;;;4.17;;
66380;SDS011;53177;52.648;1.214;2023-06-22T12:08:58;6.65;;;3.92;;
66380;SDS011;53177;52.648;1.214;2023-06-22T12:11:24;7.30;;;3.57;;
66380;SDS011;53177;52.648;1.214;2023-06-22T12:13:49;8.63;;;4.03;;
66380;SDS011;53177;52.648;1.214;2023-06-22T12:16:15;7.93;;;4.05;;
66380;SDS011;53177;52.648;1.214;2023-06-22T12:18:40;8.97;;;4.60;;
66380;SDS011;53177;52.648;1.214;2023-06-22T12:21:05;8.83;;;4.23;;
66380;SDS011;53177;52.648;1.214;2023-06-22T12:23:31;7.83;;;4.30;;
66380;SDS011;53177;52.648;1.214;2023-06-22T12:25:56;8.33;;;4.07;;
66380;SDS011;53177;52.648;1.214;2023-06-22T12:28:22;7.72;;;4.30;;
66380;SDS011;53177;52.648;1.214;2023-06-22T12:30:48;8.93;;;3.90;;
66380;SDS011;53177;52.648;1.214;2023-06-22T12:33:14;9.32;;;3.55;;
66380;SDS011;53177;52.648;1.214;2023-06-22T12:35:39;7.60;;;3.90;;
66380;SDS011;53177;52.648;1.214;2023-06-22T12:38:04;7.83;;;3.70;;
66380;SDS011;53177;52.648;1.214;2023-06-22T12:40:32;7.88;;;3.63;;
66380;SDS011;53177;52.648;1.214;2023-06-22T12:42:58;7.85;;;3.63;;
66380;SDS011;53177;52.648;1.214;2023-06-22T12:45:23;8.33;;;3.43;;
66380;SDS011;53177;52.648;1.214;2023-06-22T12:47:50;8.82;;;3.80;;
66380;SDS011;53177;52.648;1.214;2023-06-22T12:50:16;8.37;;;3.37;;
66380;SDS011;53177;52.648;1.214;2023-06-22T12:52:42;8.10;;;3.60;;
66380;SDS011;53177;52.648;1.214;2023-06-22T12:55:07;11.40;;;3.77;;
66380;SDS011;53177;52.648;1.214;2023-06-22T12:57:33;6.70;;;3.53;;
66380;SDS011;53177;52.648;1.214;2023-06-22T12:59:58;6.80;;;3.30;;
66380;SDS011;53177;52.648;1.214;2023-06-22T13:02:25;7.20;;;3.20;;
66380;SDS011;53177;52.648;1.214;2023-06-22T13:04:50;7.00;;;3.17;;
66380;SDS011;53177;52.648;1.214;2023-06-22T13:07:16;8.70;;;3.20;;
66380;SDS011;53177;52.648;1.214;2023-06-22T13:09:41;7.83;;;3.00;;
66380;SDS011;53177;52.648;1.214;2023-06-22T13:12:07;7.23;;;2.90;;
66380;SDS011;53177;52.648;1.214;2023-06-22T13:14:32;5.68;;;2.90;;
66380;SDS011;53177;52.648;1.214;2023-06-22T13:16:58;6.77;;;2.83;;
66380;SDS011;53177;52.648;1.214;2023-06-22T13:19:23;6.27;;;2.70;;
66380;SDS011;53177;52.648;1.214;2023-06-22T13:21:49;6.80;;;2.33;;
66380;SDS011;53177;52.648;1.214;2023-06-22T13:24:15;7.00;;;2.63;;
66380;SDS011;53177;52.648;1.214;2023-06-22T13:26:41;5.78;;;2.30;;
66380;SDS011;53177;52.648;1.214;2023-06-22T13:29:06;5.67;;;2.20;;
66380;SDS011;53177;52.648;1.214;2023-06-22T13:31:32;5.60;;;2.37;;
66380;SDS011;53177;52.648;1.214;2023-06-22T13:33:58;5.95;;;2.40;;
66380;SDS011;53177;52.648;1.214;2023-06-22T13:36:23;6.27;;;2.33;;
66380;SDS011;53177;52.648;1.214;2023-06-22T13:38:49;7.40;;;2.60;;
66380;SDS011;53177;52.648;1.214;2023-06-22T13:41:16;7.20;;;2.60;;
66380;SDS011;53177;52.648;1.214;2023-06-22T13:43:42;5.53;;;2.60;;
66380;SDS011;53177;52.648;1.214;2023-06-22T13:46:07;4.97;;;2.42;;
66380;SDS011;53177;52.648;1.214;2023-06-22T13:48:33;4.63;;;2.20;;
66380;SDS011;53177;52.648;1.214;2023-06-22T13:50:58;5.70;;;2.73;;
66380;SDS011;53177;52.648;1.214;2023-06-22T13:53:24;6.53;;;2.60;;
66380;SDS011;53177;52.648;1.214;2023-06-22T13:55:51;6.00;;;2.47;;
66380;SDS011;53177;52.648;1.214;2023-06-22T13:58:16;5.30;;;2.70;;
66380;SDS011;53177;52.648;1.214;2023-06-22T14:00:41;5.57;;;2.77;;
66380;SDS011;53177;52.648;1.214;2023-06-22T14:03:07;7.15;;;2.88;;
66380;SDS011;53177;52.648;1.214;2023-06-22T14:05:32;6.33;;;2.90;;
66380;SDS011;53177;52.648;1.214;2023-06-22T14:07:57;6.93;;;3.00;;
66380;SDS011;53177;52.648;1.214;2023-06-22T14:10:24;7.23;;;3.00;;
66380;SDS011;53177;52.648;1.214;2023-06-22T14:12:49;6.70;;;2.88;;
66380;SDS011;53177;52.648;1.214;2023-06-22T14:15:15;6.10;;;3.10;;
66380;SDS011;53177;52.648;1.214;2023-06-22T14:17:40;5.70;;;3.00;;
66380;SDS011;53177;52.648;1.214;2023-06-22T14:20:06;6.53;;;2.70;;
66380;SDS011;53177;52.648;1.214;2023-06-22T14:22:33;6.00;;;3.08;;
66380;SDS011;53177;52.648;1.214;2023-06-22T14:25:00;8.02;;;2.83;;
66380;SDS011;53177;52.648;1.214;2023-06-22T14:27:26;6.65;;;3.17;;
66380;SDS011;53177;52.648;1.214;2023-06-22T14:29:52;10.83;;;3.20;;
66380;SDS011;53177;52.648;1.214;2023-06-22T14:32:17;7.87;;;3.00;;
66380;SDS011;53177;52.648;1.214;2023-06-22T14:34:42;7.10;;;2.87;;
66380;SDS011;53177;52.648;1.214;2023-06-22T14:37:08;6.83;;;3.23;;
66380;SDS011;53177;52.648;1.214;2023-06-22T14:39:38;6.63;;;3.10;;
66380;SDS011;53177;52.648;1.214;2023-06-22T14:42:04;8.02;;;3.28;;
66380;SDS011;53177;52.648;1.214;2023-06-22T14:44:30;7.80;;;3.20;;
66380;SDS011;53177;52.648;1.214;2023-06-22T14:46:55;7.60;;;3.50;;